Time;durP1;ratioP1;P1;durP2;ratioP2;P2;SDS_P1;SDS_P2;PMS_P1;PMS_P2;Temp;Humidity;BMP_temperature;BMP_pressure;BME280_temperature;BME280_humidity;BME280_pressure;Samples;Min_cycle;Max_cycle;Signal;HPM_P1;HPM_P2
2022/04/09 00:02:23;;;;;;;2.35;1.90;;;;;;;-147.11;100.00;61570.13;5054068;28;20074;-41
2022/04/09 00:04:50;;;;;;;5.63;1.70;;;;;;;-147.11;100.00;61570.13;5052997;28;20025;-41
2022/04/09 00:07:15;;;;;;;2.92;1.80;;;;;;;-147.11;100.00;61570.13;5053748;28;20025;-42
2022/04/09 00:09:41;;;;;;;5.95;1.80;;;;;;;-147.11;100.00;61570.13;5053822;28;20082;-41
2022/04/09 00:12:07;;;;;;;6.30;2.00;;;;;;;-147.11;100.00;61570.13;5053523;28;20037;-41
2022/04/09 00:14:34;;;;;;;4.93;1.90;;;;;;;-147.11;100.00;61570.13;5053289;28;20032;-41
2022/04/09 00:16:59;;;;;;;5.05;2.55;;;;;;;-147.11;100.00;61570.13;5053482;28;20113;-41
2022/04/09 00:19:25;;;;;;;2.97;1.73;;;;;;;-147.11;100.00;61570.13;5053261;28;20159;-41
2022/04/09 00:21:51;;;;;;;6.15;1.95;;;;;;;-147.11;100.00;61570.13;5053349;28;20462;-42
2022/04/09 00:24:16;;;;;;;4.95;1.85;;;;;;;-147.11;100.00;61570.13;5053484;28;20029;-41
2022/04/09 00:26:42;;;;;;;2.92;1.73;;;;;;;-147.11;100.00;61570.13;5053500;28;20040;-40
2022/04/09 00:29:07;;;;;;;3.85;1.70;;;;;;;-147.11;100.00;61570.13;5053356;28;20079;-41
2022/04/09 00:31:33;;;;;;;6.30;2.05;;;;;;;-147.11;100.00;61570.13;5053191;28;20029;-41
2022/04/09 00:33:59;;;;;;;5.10;1.73;;;;;;;-147.11;100.00;61570.13;5053278;28;20021;-41
2022/04/09 00:36:25;;;;;;;6.10;1.90;;;;;;;-147.11;100.00;61570.13;5053245;28;20107;-41
2022/04/09 00:38:51;;;;;;;6.85;1.95;;;;;;;-147.11;100.00;61570.13;5053267;28;20447;-41
2022/04/09 00:41:17;;;;;;;4.28;1.83;;;;;;;-147.11;100.00;61570.13;5053259;28;20426;-41
2022/04/09 00:43:43;;;;;;;5.78;2.00;;;;;;;-147.11;100.00;61570.13;5053286;28;20040;-41
2022/04/09 00:46:11;;;;;;;8.98;2.00;;;;;;;-147.11;100.00;61570.13;5053043;28;20438;-41
2022/04/09 00:48:37;;;;;;;4.70;2.00;;;;;;;-147.11;100.00;61570.13;5053118;28;20071;-41
2022/04/09 00:51:03;;;;;;;6.60;2.10;;;;;;;-147.11;100.00;61570.13;5053274;28;20021;-41
2022/04/09 00:53:39;;;;;;;6.18;2.10;;;;;;;-147.11;100.00;61570.13;5053053;28;20367;-41
2022/04/09 00:56:16;;;;;;;4.32;1.77;;;;;;;-147.11;100.00;61570.13;5053268;28;20040;-41
2022/04/09 00:58:55;;;;;;;3.30;1.75;;;;;;;-147.11;100.00;61570.13;5053177;28;20053;-41
2022/04/09 01:01:23;;;;;;;4.47;2.60;;;;;;;-147.11;100.00;61570.13;5053462;28;20138;-41
2022/04/09 01:03:53;;;;;;;6.07;2.00;;;;;;;-147.11;100.00;61570.13;5054262;28;20032;-42
2022/04/09 01:06:19;;;;;;;3.22;1.95;;;;;;;-147.11;100.00;61570.13;5053055;28;20028;-42
2022/04/09 01:08:45;;;;;;;4.13;2.33;;;;;;;-147.11;100.00;61570.13;5052982;28;20025;-41
2022/04/09 01:11:14;;;;;;;7.00;2.40;;;;;;;-147.11;100.00;61570.13;5051597;28;20504;-41
2022/04/09 01:13:41;;;;;;;5.95;1.90;;;;;;;-147.11;100.00;61570.13;5052817;28;20029;-41
2022/04/09 01:16:07;;;;;;;10.65;2.25;;;;;;;-147.11;100.00;61570.13;5054701;28;20144;-41
2022/04/09 01:18:33;;;;;;;6.40;2.35;;;;;;;-147.11;100.00;61570.13;5057428;28;20109;-41
2022/04/09 01:21:00;;;;;;;8.90;2.85;;;;;;;-147.11;100.00;61570.13;5056971;28;20033;-42
2022/04/09 01:23:26;;;;;;;4.30;2.10;;;;;;;-147.11;100.00;61570.13;5056766;28;20048;-41
2022/04/09 01:25:52;;;;;;;7.47;2.10;;;;;;;-147.11;100.00;61570.13;5058045;28;20048;-42
2022/04/09 01:28:18;;;;;;;4.93;2.13;;;;;;;-147.11;100.00;61570.13;5056977;28;20126;-41
2022/04/09 01:30:44;;;;;;;3.67;1.50;;;;;;;-147.11;100.00;61570.13;5056539;28;20037;-41
2022/04/09 01:33:17;;;;;;;4.50;2.00;;;;;;;-147.11;100.00;61570.13;5056691;28;20024;-41
2022/04/09 01:35:43;;;;;;;6.93;2.45;;;;;;;-147.11;100.00;61570.13;5056435;28;20091;-41
2022/04/09 01:38:09;;;;;;;6.40;1.88;;;;;;;-147.11;100.00;61570.13;5056329;28;20029;-41
2022/04/09 01:40:35;;;;;;;4.78;2.08;;;;;;;-147.11;100.00;61570.13;5056470;28;20112;-42
2022/04/09 01:43:00;;;;;;;5.63;1.98;;;;;;;-147.11;100.00;61570.13;5056326;28;20474;-41
2022/04/09 01:45:27;;;;;;;7.53;1.80;;;;;;;-147.11;100.00;61570.13;5056511;28;20025;-41
2022/04/09 01:47:53;;;;;;;6.10;2.30;;;;;;;-147.11;100.00;61570.13;5057271;28;20029;-41
2022/04/09 01:50:19;;;;;;;6.20;2.22;;;;;;;-147.11;100.00;61570.13;5056381;28;20024;-41
2022/04/09 01:52:45;;;;;;;5.60;2.08;;;;;;;-147.11;100.00;61570.13;5056733;28;20025;-41
2022/04/09 01:55:10;;;;;;;4.50;2.08;;;;;;;-147.11;100.00;61570.13;5056147;28;20025;-41
2022/04/09 01:57:36;;;;;;;7.47;2.10;;;;;;;-147.11;100.00;61570.13;5056212;28;20188;-41
2022/04/09 02:00:03;;;;;;;7.80;2.00;;;;;;;-147.11;100.00;61570.13;5056079;28;20067;-42
2022/04/09 02:02:28;;;;;;;10.88;2.10;;;;;;;-147.11;100.00;61570.13;5056089;28;20029;-41
2022/04/09 02:04:54;;;;;;;6.85;1.90;;;;;;;-147.11;100.00;61570.13;5056110;28;20040;-41
2022/04/09 02:07:19;;;;;;;7.72;1.98;;;;;;;-147.11;100.00;61570.13;5055991;28;20497;-41
2022/04/09 02:09:45;;;;;;;6.28;2.15;;;;;;;-147.11;100.00;61570.13;5056117;28;20028;-41
2022/04/09 02:12:10;;;;;;;8.27;2.25;;;;;;;-147.11;100.00;61570.13;5055829;28;20409;-41
2022/04/09 02:14:35;;;;;;;5.00;1.85;;;;;;;-147.11;100.00;61570.13;5055779;28;20033;-41
2022/04/09 02:17:01;;;;;;;6.32;2.65;;;;;;;-147.11;100.00;61570.13;5056083;28;20064;-41
2022/04/09 02:19:26;;;;;;;4.15;1.73;;;;;;;-147.11;100.00;61570.13;5056088;28;20466;-41
2022/04/09 02:21:52;;;;;;;4.55;1.67;;;;;;;-147.11;100.00;61570.13;5055748;28;20478;-41
2022/04/09 02:24:17;;;;;;;5.22;1.90;;;;;;;-147.11;100.00;61570.13;5055588;28;20055;-41
2022/04/09 02:26:43;;;;;;;5.72;1.90;;;;;;;-147.11;100.00;61570.13;5055511;28;20047;-41
2022/04/09 02:29:09;;;;;;;11.27;2.30;;;;;;;-147.11;100.00;61570.13;5054945;28;20025;-41
2022/04/09 02:31:35;;;;;;;6.95;1.70;;;;;;;-147.11;100.00;61570.13;5055558;28;20029;-42
2022/04/09 02:34:01;;;;;;;4.10;2.10;;;;;;;-147.11;100.00;61570.13;5055548;28;20036;-41
2022/04/09 02:36:28;;;;;;;6.25;2.05;;;;;;;-147.11;100.00;61570.13;5055268;28;20028;-43
2022/04/09 02:38:54;;;;;;;2.97;1.92;;;;;;;-147.11;100.00;61570.13;5055003;28;20025;-41
2022/04/09 02:41:19;;;;;;;5.18;2.13;;;;;;;-147.11;100.00;61570.13;5055297;28;20041;-41
2022/04/09 02:43:46;;;;;;;6.90;1.95;;;;;;;-147.11;100.00;61570.13;5055294;28;20029;-41
2022/04/09 02:46:12;;;;;;;6.07;2.00;;;;;;;-147.11;100.00;61570.13;5055287;28;20033;-41
2022/04/09 02:48:37;;;;;;;7.70;2.03;;;;;;;-147.11;100.00;61570.13;5055179;28;20114;-41
2022/04/09 02:51:03;;;;;;;6.85;2.00;;;;;;;-147.11;100.00;61570.13;5055245;28;20040;-41
2022/04/09 02:53:28;;;;;;;4.55;2.10;;;;;;;-147.11;100.00;61570.13;5055165;28;20474;-41
2022/04/09 02:55:54;;;;;;;4.93;2.35;;;;;;;-147.11;100.00;61570.13;5055011;28;20048;-41
2022/04/09 02:58:19;;;;;;;7.72;2.25;;;;;;;-147.11;100.00;61570.13;5054771;28;20029;-41
2022/04/09 03:00:45;;;;;;;4.53;1.60;;;;;;;-147.11;100.00;61570.13;5055140;28;20036;-41
2022/04/09 03:03:10;;;;;;;5.05;1.88;;;;;;;-147.11;100.00;61570.13;5055106;28;20370;-40
2022/04/09 03:05:36;;;;;;;6.15;2.15;;;;;;;-147.11;100.00;61570.13;5054994;28;20386;-42
2022/04/09 03:08:01;;;;;;;3.95;1.83;;;;;;;-147.11;100.00;61570.13;5054974;28;20390;-40
2022/04/09 03:10:26;;;;;;;5.32;1.77;;;;;;;-147.11;100.00;61570.13;5054816;28;20052;-40
2022/04/09 03:12:52;;;;;;;7.03;1.90;;;;;;;-147.11;100.00;61570.13;5054703;28;20079;-41
2022/04/09 03:15:18;;;;;;;7.43;1.90;;;;;;;-147.11;100.00;61570.13;5053248;28;20058;-41
2022/04/09 03:17:44;;;;;;;3.97;1.70;;;;;;;-147.11;100.00;61570.13;5055192;28;20037;-40
2022/04/09 03:20:10;;;;;;;5.13;2.10;;;;;;;-147.11;100.00;61570.13;5054430;28;20025;-41
2022/04/09 03:22:35;;;;;;;6.47;2.10;;;;;;;-147.11;100.00;61570.13;5054635;28;20025;-41
2022/04/09 03:25:02;;;;;;;3.92;2.00;;;;;;;-147.11;100.00;61570.13;5054611;28;20098;-41
2022/04/09 03:27:29;;;;;;;4.30;1.95;;;;;;;-147.11;100.00;61570.13;5054608;28;20393;-41
2022/04/09 03:29:55;;;;;;;6.88;2.25;;;;;;;-147.11;100.00;61570.13;5054478;28;20056;-41
2022/04/09 03:32:21;;;;;;;7.18;2.20;;;;;;;-147.11;100.00;61570.13;5054567;28;20044;-40
2022/04/09 03:34:47;;;;;;;4.75;2.10;;;;;;;-147.11;100.00;61570.13;5054342;28;20033;-41
2022/04/09 03:37:13;;;;;;;6.25;2.22;;;;;;;-147.11;100.00;61570.13;5054194;28;20056;-41
2022/04/09 03:39:39;;;;;;;8.77;2.55;;;;;;;-147.11;100.00;61570.13;5053384;28;20033;-42
2022/04/09 03:42:05;;;;;;;6.63;2.65;;;;;;;-147.11;100.00;61570.13;5054325;28;20023;-41
2022/04/09 03:44:31;;;;;;;6.70;2.30;;;;;;;-147.11;100.00;61570.13;5054083;28;20047;-41
2022/04/09 03:46:58;;;;;;;4.53;2.10;;;;;;;-147.11;100.00;61570.13;5054279;28;20029;-41
2022/04/09 03:49:24;;;;;;;6.03;2.10;;;;;;;-147.11;100.00;61570.13;5054203;28;20029;-40
2022/04/09 03:51:49;;;;;;;4.07;2.38;;;;;;;-147.11;100.00;61570.13;5054620;28;20411;-41
2022/04/09 03:54:15;;;;;;;4.03;2.35;;;;;;;-147.11;100.00;61570.13;5054216;28;20079;-41
2022/04/09 03:56:41;;;;;;;3.00;1.95;;;;;;;-147.11;100.00;61570.13;5054088;28;20542;-41
2022/04/09 03:59:07;;;;;;;5.85;2.03;;;;;;;-147.11;100.00;61570.13;5053977;28;20033;-41
2022/04/09 04:01:32;;;;;;;5.82;2.33;;;;;;;-147.11;100.00;61570.13;5054605;28;20470;-40
2022/04/09 04:03:57;;;;;;;5.10;2.30;;;;;;;-147.11;100.00;61570.13;5054848;28;20037;-40
2022/04/09 04:06:23;;;;;;;7.13;2.30;;;;;;;-147.11;100.00;61570.13;5053817;28;20360;-41
2022/04/09 04:08:48;;;;;;;9.32;2.08;;;;;;;-147.11;100.00;61570.13;5053924;28;20025;-41
2022/04/09 04:11:14;;;;;;;9.35;2.20;;;;;;;-147.11;100.00;61570.13;5053953;28;20036;-40
2022/04/09 04:13:40;;;;;;;6.65;1.90;;;;;;;-147.11;100.00;61570.13;5053577;28;20037;-41
2022/04/09 04:16:05;;;;;;;5.72;2.92;;;;;;;-147.11;100.00;61570.13;5053584;28;20059;-41
2022/04/09 04:18:31;;;;;;;5.95;2.30;;;;;;;-147.11;100.00;61570.13;5053666;28;20037;-40
2022/04/09 04:20:57;;;;;;;7.20;2.30;;;;;;;-147.11;100.00;61570.13;5052586;28;20379;-40
2022/04/09 04:23:23;;;;;;;6.15;2.35;;;;;;;-147.11;100.00;61570.13;5054012;28;20041;-41
2022/04/09 04:25:49;;;;;;;8.52;2.30;;;;;;;-147.11;100.00;61570.13;5054064;28;20496;-41
2022/04/09 04:28:15;;;;;;;11.30;2.50;;;;;;;-147.11;100.00;61570.13;5053533;28;20037;-41
2022/04/09 04:30:41;;;;;;;7.32;2.20;;;;;;;-147.11;100.00;61570.13;5053427;28;20021;-41
2022/04/09 04:33:06;;;;;;;2.95;1.83;;;;;;;-147.11;100.00;61570.13;5053463;28;20051;-40
2022/04/09 04:35:32;;;;;;;9.00;2.08;;;;;;;-147.11;100.00;61570.13;5053240;28;20147;-41
2022/04/09 04:37:57;;;;;;;4.43;1.90;;;;;;;-147.11;100.00;61570.13;5053253;28;20482;-41
2022/04/09 04:40:23;;;;;;;3.60;2.10;;;;;;;-147.11;100.00;61570.13;5053835;28;20029;-42
2022/04/09 04:42:49;;;;;;;5.75;2.05;;;;;;;-147.11;100.00;61570.13;5057001;28;20382;-40
2022/04/09 04:45:15;;;;;;;5.93;1.83;;;;;;;-147.11;100.00;61570.13;5053883;28;20032;-41
2022/04/09 04:47:48;;;;;;;5.53;2.10;;;;;;;-147.11;100.00;61570.13;5054733;28;20027;-41
2022/04/09 04:50:15;;;;;;;6.18;2.00;;;;;;;-147.11;100.00;61570.13;5053114;28;20112;-41
2022/04/09 04:52:41;;;;;;;6.05;2.25;;;;;;;-147.11;100.00;61570.13;5053253;28;20039;-40
2022/04/09 04:55:11;;;;;;;6.45;2.00;;;;;;;-147.11;100.00;61570.13;5053388;28;20116;-41
2022/04/09 04:57:55;;;;;;;5.75;2.40;;;;;;;-147.11;100.00;61570.13;5053122;28;20027;-41
2022/04/09 05:00:25;;;;;;;4.68;2.10;;;;;;;-147.11;100.00;61570.13;5053315;28;20017;-40
2022/04/09 05:02:51;;;;;;;7.45;1.98;;;;;;;-147.11;100.00;61570.13;5053167;28;20370;-41
2022/04/09 05:05:17;;;;;;;5.05;2.00;;;;;;;-147.11;100.00;61570.13;5053198;28;20055;-41
2022/04/09 05:07:52;;;;;;;5.72;1.90;;;;;;;-147.11;100.00;61570.13;5053148;28;20040;-41
2022/04/09 05:10:20;;;;;;;5.75;1.88;;;;;;;-147.11;100.00;61570.13;5052334;28;20112;-41
2022/04/09 05:12:46;;;;;;;6.25;2.03;;;;;;;-147.11;100.00;61570.13;5053351;28;20158;-41
2022/04/09 05:15:13;;;;;;;6.30;2.03;;;;;;;-147.11;100.00;61570.13;5053085;28;20509;-41
2022/04/09 05:17:39;;;;;;;6.68;2.50;;;;;;;-147.11;100.00;61570.13;5053143;28;20033;-41
2022/04/09 05:20:06;;;;;;;9.32;2.40;;;;;;;-147.11;100.00;61570.13;5052858;28;20040;-42
2022/04/09 05:22:33;;;;;;;8.48;1.80;;;;;;;-147.11;100.00;61570.13;5052862;28;20413;-41
2022/04/09 05:24:58;;;;;;;8.10;2.10;;;;;;;-147.11;100.00;61570.13;5053547;28;20029;-40
2022/04/09 05:27:24;;;;;;;7.72;2.10;;;;;;;-147.11;100.00;61570.13;5053154;28;20075;-41
2022/04/09 05:29:50;;;;;;;7.13;1.85;;;;;;;-147.11;100.00;61570.13;5053516;28;20074;-40
2022/04/09 05:32:17;;;;;;;6.10;1.80;;;;;;;-147.11;100.00;61570.13;5053184;28;20029;-41
2022/04/09 05:34:43;;;;;;;10.70;2.28;;;;;;;-147.11;100.00;61570.13;5053010;28;20025;-42
2022/04/09 05:37:09;;;;;;;6.43;1.95;;;;;;;-147.11;100.00;61570.13;5052548;28;20500;-40
2022/04/09 05:39:35;;;;;;;7.13;2.05;;;;;;;-147.11;100.00;61570.13;5052819;28;20529;-41
2022/04/09 05:42:00;;;;;;;6.03;1.88;;;;;;;-147.11;100.00;61570.13;5053088;28;20386;-40
2022/04/09 05:44:26;;;;;;;4.97;1.92;;;;;;;-147.11;100.00;61570.13;5053015;28;20471;-41
2022/04/09 05:46:51;;;;;;;7.78;2.28;;;;;;;-147.11;100.00;61570.13;5053210;28;20035;-40
2022/04/09 05:49:18;;;;;;;6.25;1.92;;;;;;;-147.11;100.00;61570.13;5053126;28;20095;-40
2022/04/09 05:51:43;;;;;;;7.20;2.10;;;;;;;-147.11;100.00;61570.13;5053310;28;20035;-40
2022/04/09 05:54:09;;;;;;;9.68;2.40;;;;;;;-147.11;100.00;61570.13;5054315;28;20113;-40
2022/04/09 05:56:36;;;;;;;8.35;2.10;;;;;;;-147.11;100.00;61570.13;5052975;28;20021;-40
2022/04/09 05:59:02;;;;;;;7.43;2.40;;;;;;;-147.11;100.00;61570.13;5052572;28;20060;-41
2022/04/09 06:01:28;;;;;;;6.05;2.10;;;;;;;-147.11;100.00;61570.13;5052642;28;20068;-40
2022/04/09 06:03:54;;;;;;;7.15;2.05;;;;;;;-147.11;100.00;61570.13;5070636;28;20036;-41
2022/04/09 06:06:19;;;;;;;8.25;1.92;;;;;;;-147.11;100.00;61570.13;5056171;28;20029;-40
2022/04/09 06:08:45;;;;;;;6.70;2.03;;;;;;;-147.11;100.00;61570.13;5055945;28;20422;-40
2022/04/09 06:11:11;;;;;;;7.50;2.50;;;;;;;-147.11;100.00;61570.13;5056132;28;20028;-40
2022/04/09 06:13:36;;;;;;;7.03;2.28;;;;;;;-147.11;100.00;61570.13;5056151;28;20035;-40
2022/04/09 06:16:06;;;;;;;9.80;2.60;;;;;;;-147.11;100.00;61570.13;5055783;28;20032;-42
2022/04/09 06:18:31;;;;;;;10.30;2.25;;;;;;;-147.11;100.00;61570.13;5055604;28;20056;-42
2022/04/09 06:20:57;;;;;;;9.40;2.30;;;;;;;-147.11;100.00;61570.13;5055872;28;20052;-41
2022/04/09 06:23:22;;;;;;;6.22;2.10;;;;;;;-147.11;100.00;61570.13;5055914;28;20021;-40
2022/04/09 06:25:47;;;;;;;8.55;2.22;;;;;;;-147.11;100.00;61570.13;5055500;28;20025;-40
2022/04/09 06:28:14;;;;;;;10.93;2.20;;;;;;;-147.11;100.00;61570.13;5056121;28;20118;-41
2022/04/09 06:30:39;;;;;;;10.60;2.35;;;;;;;-147.11;100.00;61570.13;5056147;28;20033;-40
2022/04/09 06:33:05;;;;;;;8.70;2.17;;;;;;;-147.11;100.00;61570.13;5060433;28;20037;-40
2022/04/09 06:35:30;;;;;;;9.45;2.08;;;;;;;-147.11;100.00;61570.13;5056120;28;20117;-41
2022/04/09 06:37:56;;;;;;;9.05;3.05;;;;;;;-147.11;100.00;61570.13;5055322;28;20036;-41
2022/04/09 06:40:21;;;;;;;9.52;2.30;;;;;;;-147.11;100.00;61570.13;5054757;28;20152;-41
2022/04/09 06:42:47;;;;;;;12.32;3.42;;;;;;;-147.11;100.00;61570.13;5055507;28;20052;-40
2022/04/09 06:45:14;;;;;;;13.05;2.15;;;;;;;-147.11;100.00;61570.13;5055435;28;20374;-40
2022/04/09 06:47:40;;;;;;;6.28;2.30;;;;;;;-147.11;100.00;61570.13;5055203;28;20430;-40
2022/04/09 06:50:14;;;;;;;10.05;2.85;;;;;;;-147.11;100.00;61570.13;5055218;28;20060;-40
2022/04/09 06:52:40;;;;;;;8.50;2.72;;;;;;;-147.11;100.00;61570.13;5053821;28;20547;-40
2022/04/09 06:55:09;;;;;;;9.27;2.78;;;;;;;-147.11;100.00;61570.13;5035252;28;20029;-40
2022/04/09 06:57:36;;;;;;;10.10;2.60;;;;;;;-147.11;100.00;61570.13;5035197;28;20103;-40
2022/04/09 07:00:04;;;;;;;9.18;2.25;;;;;;;-147.11;100.00;61570.13;5052256;28;20112;-40
2022/04/09 07:02:30;;;;;;;8.98;2.38;;;;;;;-147.11;100.00;61570.13;5054184;28;20440;-42
2022/04/09 07:04:55;;;;;;;10.98;2.78;;;;;;;-147.11;100.00;61570.13;5053475;28;20501;-40
2022/04/09 07:07:25;;;;;;;11.50;2.53;;;;;;;-147.11;100.00;61570.13;5053319;28;20051;-40
2022/04/09 07:09:55;;;;;;;12.82;2.45;;;;;;;-147.11;100.00;61570.13;5053620;28;20025;-41
2022/04/09 07:12:22;;;;;;;8.32;2.17;;;;;;;-147.11;100.00;61570.13;5053079;28;20143;-40
2022/04/09 07:14:48;;;;;;;11.80;2.60;;;;;;;-147.11;100.00;61570.13;5054659;28;20390;-40
2022/04/09 07:17:20;;;;;;;11.52;2.20;;;;;;;-147.11;100.00;61570.13;5052660;28;20029;-41
2022/04/09 07:19:46;;;;;;;12.10;2.95;;;;;;;-147.11;100.00;61570.13;5053612;28;20074;-40
2022/04/09 07:22:11;;;;;;;16.75;2.85;;;;;;;-147.11;100.00;61570.13;5054715;28;20029;-40
2022/04/09 07:24:37;;;;;;;6.85;2.00;;;;;;;-147.11;100.00;61570.13;5051996;28;20031;-40
2022/04/09 07:27:03;;;;;;;9.77;2.63;;;;;;;-147.11;100.00;61570.13;5053707;28;20063;-40
2022/04/09 07:29:29;;;;;;;7.60;2.35;;;;;;;-147.11;100.00;61570.13;5053572;28;20037;-40
2022/04/09 07:31:54;;;;;;;8.48;2.35;;;;;;;-147.11;100.00;61570.13;5053077;28;20051;-41
2022/04/09 07:34:20;;;;;;;15.65;3.55;;;;;;;-147.11;100.00;61570.13;5053512;28;20035;-40
2022/04/09 07:36:45;;;;;;;6.90;2.53;;;;;;;-147.11;100.00;61570.13;5053571;28;20041;-42
2022/04/09 07:39:11;;;;;;;14.32;2.50;;;;;;;-147.11;100.00;61570.13;5052914;28;20040;-40
2022/04/09 07:41:36;;;;;;;8.50;2.35;;;;;;;-147.11;100.00;61570.13;5052284;28;20102;-40
2022/04/09 07:44:02;;;;;;;6.90;2.30;;;;;;;-147.11;100.00;61570.13;5053010;28;20032;-40
2022/04/09 07:46:27;;;;;;;10.00;2.67;;;;;;;-147.11;100.00;61570.13;5052131;28;20063;-41
2022/04/09 07:48:53;;;;;;;7.90;2.15;;;;;;;-147.11;100.00;61570.13;5053552;28;20032;-40
2022/04/09 07:51:19;;;;;;;11.13;2.35;;;;;;;-147.11;100.00;61570.13;5054174;28;20048;-41
2022/04/09 07:53:44;;;;;;;5.10;1.70;;;;;;;-147.11;100.00;61570.13;5054241;28;20087;-41
2022/04/09 07:56:10;;;;;;;8.00;2.00;;;;;;;-147.11;100.00;61570.13;5054323;28;20029;-41
2022/04/09 07:58:35;;;;;;;9.50;2.13;;;;;;;-147.11;100.00;61570.13;5053356;28;20021;-41
2022/04/09 08:01:01;;;;;;;13.40;3.33;;;;;;;-147.11;100.00;61570.13;5053854;28;20037;-41
2022/04/09 08:03:26;;;;;;;6.60;1.88;;;;;;;-147.11;100.00;61570.13;5053834;28;20417;-41
2022/04/09 08:05:52;;;;;;;7.22;2.08;;;;;;;-147.11;100.00;61570.13;5053485;28;20041;-41
2022/04/09 08:08:18;;;;;;;9.52;1.80;;;;;;;-147.11;100.00;61570.13;5054286;28;20079;-41
2022/04/09 08:10:43;;;;;;;7.20;1.75;;;;;;;-147.11;100.00;61570.13;5054248;28;20435;-43
2022/04/09 08:13:09;;;;;;;9.05;1.77;;;;;;;-147.11;100.00;61570.13;5053975;28;20046;-41
2022/04/09 08:15:34;;;;;;;9.70;1.73;;;;;;;-147.11;100.00;61570.13;5061456;28;20115;-41
2022/04/09 08:18:04;;;;;;;8.98;1.65;;;;;;;-147.11;100.00;61570.13;5073791;28;20150;-41
2022/04/09 08:20:30;;;;;;;9.38;1.80;;;;;;;-147.11;100.00;61570.13;5073610;28;20039;-41
2022/04/09 08:22:55;;;;;;;10.68;2.42;;;;;;;-147.11;100.00;61570.13;5073902;28;20048;-41
2022/04/09 08:25:21;;;;;;;11.02;2.05;;;;;;;-147.11;100.00;61570.13;5056565;28;20390;-42
2022/04/09 08:27:49;;;;;;;9.00;2.08;;;;;;;-147.11;100.00;61570.13;5053682;28;20044;-41
2022/04/09 08:30:15;;;;;;;8.90;2.00;;;;;;;-147.11;100.00;61570.13;5054188;28;20112;-41
2022/04/09 08:32:41;;;;;;;7.13;1.60;;;;;;;-147.11;100.00;61570.13;5054462;28;20113;-41
2022/04/09 08:35:06;;;;;;;8.32;1.60;;;;;;;-147.11;100.00;61570.13;5054143;28;20033;-40
2022/04/09 08:37:32;;;;;;;5.32;1.40;;;;;;;-147.11;100.00;61570.13;5053323;28;20040;-41
2022/04/09 08:39:58;;;;;;;11.50;1.90;;;;;;;-147.11;100.00;61570.13;5053556;28;20087;-40
2022/04/09 08:42:24;;;;;;;6.05;1.60;;;;;;;-147.11;100.00;61570.13;5053613;28;20029;-41
2022/04/09 08:44:50;;;;;;;14.20;2.17;;;;;;;-147.11;100.00;61570.13;5054207;28;20029;-40
2022/04/09 08:47:16;;;;;;;9.90;2.50;;;;;;;-147.11;100.00;61570.13;5053456;28;20151;-41
2022/04/09 08:49:46;;;;;;;6.45;1.50;;;;;;;-147.11;100.00;61570.13;5053832;28;20021;-42
2022/04/09 08:52:12;;;;;;;8.73;1.73;;;;;;;-147.11;100.00;61570.13;5053660;28;20083;-40
2022/04/09 08:54:38;;;;;;;11.63;2.00;;;;;;;-147.11;100.00;61570.13;5053702;28;20039;-40
2022/04/09 08:57:05;;;;;;;8.68;2.10;;;;;;;-147.11;100.00;61570.13;5053924;28;20111;-40
2022/04/09 08:59:31;;;;;;;6.90;1.60;;;;;;;-147.11;100.00;61570.13;5053825;28;20029;-40
2022/04/09 09:01:57;;;;;;;9.55;1.85;;;;;;;7.32;51.35;99925.75;5054750;28;20029;-40
2022/04/09 09:04:22;;;;;;;6.32;1.80;;;;;;;7.32;50.98;99942.31;5053301;28;20051;-41
2022/04/09 09:06:48;;;;;;;6.00;1.50;;;;;;;7.35;50.32;99956.97;5052978;28;20029;-41
2022/04/09 09:09:29;;;;;;;3.80;1.25;;;;;;;7.39;50.24;99952.41;5053088;28;20021;-40
2022/04/09 09:11:57;;;;;;;7.28;1.42;;;;;;;7.44;49.96;99950.38;5053234;28;20036;-41
2022/04/09 09:14:32;;;;;;;5.22;1.30;;;;;;;7.53;50.01;99956.88;5052869;28;20033;-40
2022/04/09 09:16:59;;;;;;;5.60;1.42;;;;;;;7.58;49.92;99957.41;5053356;28;20021;-38
2022/04/09 09:19:43;;;;;;;7.43;2.22;;;;;;;7.61;50.12;99955.50;5053153;28;20037;-37
2022/04/09 09:22:08;;;;;;;10.20;2.25;;;;;;;7.65;49.99;99953.53;5053148;28;20482;-37
2022/04/09 09:24:34;;;;;;;5.72;1.50;;;;;;;7.68;50.50;99955.13;5052616;28;20056;-38
2022/04/09 09:27:02;;;;;;;4.40;1.23;;;;;;;7.70;49.56;99966.34;5052831;28;20028;-37
2022/04/09 09:29:29;;;;;;;7.60;1.65;;;;;;;7.69;48.82;99980.38;5068267;28;20021;-37
2022/04/09 09:31:56;;;;;;;5.78;1.42;;;;;;;7.68;48.42;99948.13;5052481;28;20021;-37
2022/04/09 09:34:22;;;;;;;4.55;1.50;;;;;;;7.68;48.85;99955.13;5052821;28;20482;-37
2022/04/09 09:36:49;;;;;;;6.80;1.55;;;;;;;7.76;48.90;99971.25;5052741;28;20112;-38
2022/04/09 09:39:23;;;;;;;8.07;1.55;;;;;;;7.87;49.06;99957.50;5055988;28;20060;-37
2022/04/09 09:41:55;;;;;;;7.68;1.40;;;;;;;7.96;48.07;99959.59;5056354;28;20486;-39
2022/04/09 09:44:25;;;;;;;5.80;1.27;;;;;;;7.96;48.13;99963.97;5056825;28;20028;-38
2022/04/09 09:46:53;;;;;;;7.28;1.40;;;;;;;7.98;48.61;99977.81;5073765;28;20611;-37
2022/04/09 09:49:22;;;;;;;10.75;1.70;;;;;;;8.06;48.28;99993.94;5076236;28;20091;-38
2022/04/09 09:52:03;;;;;;;8.18;1.50;;;;;;;8.14;47.77;99968.13;5076459;28;20032;-38
2022/04/09 09:54:28;;;;;;;5.47;1.30;;;;;;;8.16;47.87;99962.81;5076366;28;20025;-38
2022/04/09 09:56:55;;;;;;;4.10;1.10;;;;;;;8.20;47.17;99991.34;5075817;28;20351;-37
2022/04/09 09:59:22;;;;;;;4.90;1.20;;;;;;;8.21;47.08;99986.94;5076297;28;20039;-37
2022/04/09 10:01:48;;;;;;;4.55;1.27;;;;;;;8.22;47.09;99971.13;5075912;28;20481;-38
2022/04/09 10:04:13;;;;;;;4.82;1.30;;;;;;;8.31;47.56;99982.00;5076234;28;20048;-38
2022/04/09 10:06:44;;;;;;;6.97;1.63;;;;;;;8.43;46.90;99980.41;5075614;28;20059;-38
2022/04/09 10:09:13;;;;;;;6.60;1.80;;;;;;;8.46;47.12;99994.16;5076125;28;20048;-38
2022/04/09 10:11:43;;;;;;;8.65;2.03;;;;;;;8.45;47.03;99984.63;5076401;28;20027;-37
2022/04/09 10:14:10;;;;;;;7.88;1.45;;;;;;;8.42;46.69;99973.47;5077957;28;20024;-38
2022/04/09 10:16:36;;;;;;;8.02;1.65;;;;;;;8.39;46.89;99979.75;5075873;28;20047;-37
2022/04/09 10:19:04;;;;;;;6.22;1.33;;;;;;;8.39;46.88;99985.84;5074439;28;20028;-37
2022/04/09 10:21:34;;;;;;;4.22;1.15;;;;;;;8.40;47.24;99986.66;5075667;28;20063;-38
2022/04/09 10:24:05;;;;;;;6.38;2.28;;;;;;;8.45;47.17;99983.78;5075828;28;20043;-38
2022/04/09 10:26:31;;;;;;;5.53;1.40;;;;;;;8.52;47.18;99980.72;5075280;28;20032;-38
2022/04/09 10:29:05;;;;;;;7.55;1.73;;;;;;;8.61;46.68;99979.31;5075720;28;20032;-42
2022/04/09 10:31:32;;;;;;;5.07;1.17;;;;;;;8.62;46.67;99980.16;5075516;28;20066;-38
2022/04/09 10:34:02;;;;;;;6.80;1.75;;;;;;;8.61;46.38;99973.22;5075478;28;20485;-38
2022/04/09 10:36:40;;;;;;;4.32;1.40;;;;;;;8.59;46.79;99952.34;5074979;28;20474;-37
2022/04/09 10:39:39;;;;;;;6.35;1.58;;;;;;;8.63;47.11;99951.19;5075317;28;20036;-37
2022/04/09 10:42:05;;;;;;;4.28;0.93;;;;;;;8.69;47.20;99953.44;5075295;28;20060;-37
2022/04/09 10:45:05;;;;;;;4.80;1.40;;;;;;;8.73;46.52;99956.72;5075484;28;20032;-37
2022/04/09 10:48:14;;;;;;;4.10;1.10;;;;;;;8.79;45.78;99982.56;5023224;28;20124;-37
2022/04/09 10:50:58;;;;;;;5.00;1.60;;;;;;;8.78;46.21;99962.53;5035172;28;20055;-38
2022/04/09 10:53:27;;;;;;;4.30;1.42;;;;;;;8.77;46.17;99978.38;5035065;28;20037;-38
2022/04/09 10:56:11;;;;;;;11.63;1.77;;;;;;;8.76;46.56;99972.25;5055787;28;20107;-41
2022/04/09 10:59:06;;;;;;;7.68;1.60;;;;;;;8.84;46.88;99971.78;5074829;28;20470;-41
2022/04/09 11:01:52;;;;;;;5.20;1.58;;;;;;;8.91;45.45;100008.97;5065506;28;20493;-41
2022/04/09 11:04:35;;;;;;;5.90;1.40;;;;;;;8.85;45.56;100055.63;5070304;28;20122;-41
2022/04/09 11:07:07;;;;;;;4.03;1.30;;;;;;;8.64;49.90;100056.97;5050161;28;20026;-38
2022/04/09 11:09:44;;;;;;;2.55;0.80;;;;;;;-147.11;100.00;61570.13;5033583;28;20112;-37
2022/04/09 11:12:11;;;;;;;4.07;1.10;;;;;;;-147.11;100.00;61570.13;5035020;28;20040;-37
2022/04/09 11:14:45;;;;;;;4.38;1.20;;;;;;;-147.11;100.00;61570.13;5034630;28;20029;-44
2022/04/09 11:17:22;;;;;;;5.45;1.30;;;;;;;-147.11;100.00;61570.13;5054844;28;20075;-37